Time;durP1;ratioP1;P1;durP2;ratioP2;P2;SDS_P1;SDS_P2;PMS_P1;PMS_P2;Temp;Humidity;BMP_temperature;BMP_pressure;BME280_temperature;BME280_humidity;BME280_pressure;Samples;Min_cycle;Max_cycle;Signal;HPM_P1;HPM_P2
2022/03/07 00:00:55;;;;;;;;;65.33;50.33;;;;;9.80;41.20;101999.22;5118875;27;61847;-83
2022/03/07 00:03:20;;;;;;;;;68.00;52.33;;;;;9.78;40.78;101994.69;5101952;27;62815;-82
2022/03/07 00:05:46;;;;;;;;;68.67;49.67;;;;;9.77;41.00;101995.50;5104180;27;61969;-82
2022/03/07 00:08:13;;;;;;;;;70.33;50.00;;;;;9.78;41.22;101999.94;5105579;27;61803;-83
2022/03/07 00:10:38;;;;;;;;;68.00;47.33;;;;;9.76;41.14;101991.06;5106497;27;61664;-83
2022/03/07 00:13:04;;;;;;;;;65.67;48.67;;;;;9.73;40.67;101991.75;5103506;27;63202;-83
2022/03/07 00:15:29;;;;;;;;;66.00;51.67;;;;;9.75;41.03;101995.41;5105781;27;61806;-82
2022/03/07 00:17:55;;;;;;;;;60.00;47.33;;;;;9.74;41.06;101990.03;5103813;27;61746;-83
2022/03/07 00:20:21;;;;;;;;;64.33;49.33;;;;;9.76;40.98;101994.56;5104975;27;61872;-83
2022/03/07 00:22:46;;;;;;;;;65.67;47.67;;;;;9.75;40.89;101992.78;5104539;27;62155;-82
2022/03/07 00:25:12;;;;;;;;;62.33;45.67;;;;;9.75;40.60;101989.25;5104674;27;61725;-83
2022/03/07 00:27:37;;;;;;;;;59.00;45.75;;;;;9.73;40.98;101998.72;5105057;27;62009;-83
2022/03/07 00:30:04;;;;;;;;;61.67;47.33;;;;;9.68;40.86;101995.78;5106123;27;62129;-83
2022/03/07 00:32:30;;;;;;;;;64.67;47.00;;;;;9.70;40.77;101993.25;5105141;27;61932;-82
2022/03/07 00:34:55;;;;;;;;;64.33;51.33;;;;;9.68;40.86;102003.63;5104152;27;61914;-83
2022/03/07 00:37:20;;;;;;;;;60.00;46.00;;;;;9.65;40.47;102003.44;5104083;27;61892;-83
2022/03/07 00:39:46;;;;;;;;;38.00;37.33;;;;;9.60;40.83;101997.88;5104571;27;62089;-83
2022/03/07 00:42:11;;;;;;;;;47.00;40.67;;;;;9.62;41.12;101995.38;5104382;27;61977;-83
2022/03/07 00:44:37;;;;;;;;;55.67;45.67;;;;;9.61;40.82;101993.56;5104072;27;61975;-83
2022/03/07 00:47:03;;;;;;;;;49.00;43.00;;;;;9.62;40.85;102001.53;5105759;27;61897;-83
2022/03/07 00:49:28;;;;;;;;;63.33;44.00;;;;;9.59;41.21;102001.31;5105744;27;61973;-83
2022/03/07 00:51:56;;;;;;;;;59.00;44.67;;;;;9.57;41.22;101995.03;5103159;27;63493;-83
2022/03/07 00:54:21;;;;;;;;;56.75;42.25;;;;;9.54;40.83;101992.22;5104090;27;62013;-83
2022/03/07 00:56:47;;;;;;;;;61.50;46.25;;;;;9.54;40.35;101999.19;5104613;27;61720;-83
2022/03/07 00:59:12;;;;;;;;;65.00;46.67;;;;;9.54;41.22;102000.09;5103766;27;61994;-83
2022/03/07 01:01:38;;;;;;;;;49.00;42.67;;;;;9.55;41.46;101995.75;5103454;27;64832;-83
2022/03/07 01:04:03;;;;;;;;;57.67;43.67;;;;;9.56;41.28;101994.97;5103739;27;61878;-83
2022/03/07 01:06:29;;;;;;;;;65.67;45.00;;;;;9.53;41.17;101995.66;5103609;27;61796;-82
2022/03/07 01:08:54;;;;;;;;;59.33;46.00;;;;;9.52;41.18;101993.84;5105309;27;61755;-82
2022/03/07 01:11:20;;;;;;;;;60.50;46.00;;;;;9.48;40.66;101991.81;5102878;27;63820;-83
2022/03/07 01:13:45;;;;;;;;;55.00;47.00;;;;;9.48;41.05;101990.91;5103436;27;62032;-83
2022/03/07 01:16:11;;;;;;;;;66.75;47.25;;;;;9.44;40.62;101995.03;5103859;27;61936;-83
2022/03/07 01:18:36;;;;;;;;;61.75;47.50;;;;;9.44;41.04;101992.41;5103800;27;61976;-83
2022/03/07 01:21:02;;;;;;;;;64.33;47.33;;;;;9.36;41.22;101991.91;5102890;27;65124;-83
2022/03/07 01:23:27;;;;;;;;;59.67;42.67;;;;;9.35;41.15;101983.91;5104634;27;61786;-83
2022/03/07 01:25:53;;;;;;;;;57.00;44.00;;;;;9.33;41.23;101989.03;5104544;27;61709;-83
2022/03/07 01:28:18;;;;;;;;;51.75;41.75;;;;;9.29;41.20;101979.16;5103290;27;62190;-83
2022/03/07 01:30:44;;;;;;;;;59.75;43.75;;;;;9.29;41.72;101983.50;5102614;27;63653;-83
2022/03/07 01:33:09;;;;;;;;;59.00;43.50;;;;;9.30;41.55;101991.47;5103447;27;61767;-83
2022/03/07 01:35:35;;;;;;;;;63.00;45.67;;;;;9.28;41.40;101979.06;5103518;27;62034;-83
2022/03/07 01:38:00;;;;;;;;;50.25;40.25;;;;;9.29;42.05;101988.72;5103173;27;62293;-83
2022/03/07 01:40:26;;;;;;;;;60.25;43.00;;;;;9.29;41.16;101980.88;5103776;27;61767;-83
2022/03/07 01:42:52;;;;;;;;;58.33;44.67;;;;;9.27;41.74;101983.38;5104208;27;61777;-83
2022/03/07 01:45:19;;;;;;;;;56.67;43.00;;;;;9.26;41.22;101976.34;5103149;27;62180;-83
2022/03/07 01:47:45;;;;;;;;;69.00;41.25;;;;;9.28;41.23;101973.84;5104720;27;62276;-83
2022/03/07 01:50:13;;;;;;;;;66.50;44.25;;;;;9.26;41.33;101980.69;5102745;27;63973;-83
2022/03/07 01:52:42;;;;;;;;;52.00;41.67;;;;;9.23;41.32;101977.81;5102788;27;62004;-83
2022/03/07 01:55:09;;;;;;;;;64.67;47.67;;;;;9.23;41.20;101976.09;5102550;27;61836;-83
2022/03/07 01:57:39;;;;;;;;;52.33;34.33;;;;;9.19;41.75;101972.41;5102522;27;62045;-83
2022/03/07 02:00:10;;;;;;;;;55.67;43.67;;;;;9.16;41.46;101966.91;5103760;27;61875;-83
2022/03/07 02:02:36;;;;;;;;;49.00;35.00;;;;;9.15;41.10;101967.75;5104323;27;61832;-83
2022/03/07 02:05:02;;;;;;;;;62.00;43.33;;;;;9.06;41.01;101964.50;5102757;27;62007;-82
2022/03/07 02:07:28;;;;;;;;;60.00;42.00;;;;;9.05;40.96;101965.28;5102515;27;61782;-82
2022/03/07 02:09:54;;;;;;;;;63.00;47.00;;;;;9.05;41.10;101962.66;5101867;27;65006;-83
2022/03/07 02:12:20;;;;;;;;;57.67;44.67;;;;;9.04;41.93;101959.94;5102800;27;61708;-83
2022/03/07 02:14:46;;;;;;;;;53.33;43.00;;;;;8.98;41.24;101948.25;5102690;27;62334;-83
2022/03/07 02:17:11;;;;;;;;;48.33;42.33;;;;;8.96;41.09;101955.06;5102940;27;61735;-83
2022/03/07 02:19:37;;;;;;;;;49.33;42.67;;;;;8.93;41.27;101960.13;5136268;27;64556;-83
2022/03/07 02:22:06;;;;;;;;;59.00;44.00;;;;;8.93;41.29;101953.94;5103533;27;61953;-83
2022/03/07 02:24:32;;;;;;;;;61.67;47.00;;;;;8.88;41.35;101953.63;5103629;27;61985;-83
2022/03/07 02:27:02;;;;;;;;;61.33;45.33;;;;;8.88;41.37;101955.34;5102427;27;61810;-83
2022/03/07 02:29:29;;;;;;;;;60.50;42.75;;;;;8.87;41.53;101943.97;5118664;27;64101;-82
2022/03/07 02:31:55;;;;;;;;;57.25;42.25;;;;;8.89;41.77;101942.38;5102433;27;62036;-83
2022/03/07 02:34:21;;;;;;;;;57.67;44.33;;;;;8.89;41.21;101931.91;5103787;27;61826;-83
2022/03/07 02:36:46;;;;;;;;;52.00;42.33;;;;;8.82;40.98;101937.47;5102278;27;62203;-83
2022/03/07 02:39:12;;;;;;;;;42.33;39.33;;;;;8.79;41.66;101932.06;5102595;27;61914;-83
2022/03/07 02:41:39;;;;;;;;;45.33;39.67;;;;;8.77;41.40;101936.25;5103759;27;62627;-83
2022/03/07 02:44:05;;;;;;;;;54.25;40.25;;;;;8.73;41.33;101929.91;5102384;27;61833;-82
2022/03/07 02:46:30;;;;;;;;;59.33;42.67;;;;;8.72;41.63;101929.78;5102371;27;61857;-83
2022/03/07 02:48:56;;;;;;;;;64.00;47.00;;;;;8.73;41.54;101926.38;5101711;27;63282;-83
2022/03/07 02:51:21;;;;;;;;;59.00;48.00;;;;;8.73;41.25;101923.75;5101922;27;61851;-83
2022/03/07 02:53:47;;;;;;;;;47.67;42.00;;;;;8.73;41.72;101927.28;5103052;27;62234;-83
2022/03/07 02:56:13;;;;;;;;;56.33;46.33;;;;;8.70;41.99;101920.94;5103097;27;62113;-83
2022/03/07 02:58:38;;;;;;;;;54.00;42.33;;;;;8.70;42.60;101921.84;5102626;27;61809;-83
2022/03/07 03:01:04;;;;;;;;;55.67;44.67;;;;;8.67;41.84;101919.00;5103079;27;61767;-82
2022/03/07 03:03:30;;;;;;;;;57.33;43.00;;;;;8.64;42.25;101917.88;5103568;27;61945;-83
2022/03/07 03:05:55;;;;;;;;;58.00;42.00;;;;;8.61;42.10;101923.78;5103783;27;61752;-83
2022/03/07 03:08:22;;;;;;;;;51.00;40.00;;;;;8.58;41.56;101919.25;5101901;27;62186;-83
2022/03/07 03:10:49;;;;;;;;;54.00;40.67;;;;;8.53;41.96;101918.03;5103208;27;61758;-83
2022/03/07 03:13:17;;;;;;;;;52.33;41.67;;;;;8.51;42.65;101913.50;5101965;27;62304;-82
2022/03/07 03:15:43;;;;;;;;;49.67;39.33;;;;;8.52;42.17;101921.44;5103384;27;61910;-83
2022/03/07 03:18:11;;;;;;;;;62.25;40.75;;;;;8.48;42.44;101918.50;5102520;27;62087;-83
2022/03/07 03:20:38;;;;;;;;;42.25;40.75;;;;;8.44;42.08;101909.53;5101952;27;61967;-83
2022/03/07 03:23:04;;;;;;;;;54.25;40.50;;;;;8.41;42.29;101905.78;5101987;27;62053;-83
2022/03/07 03:25:29;;;;;;;;;53.75;43.75;;;;;8.39;42.29;101909.16;5103456;27;61742;-83
2022/03/07 03:27:55;;;;;;;;;52.00;41.33;;;;;8.41;42.64;101909.31;5100795;27;63429;-83
2022/03/07 03:30:21;;;;;;;;;55.67;45.33;;;;;8.43;42.32;101910.31;5103209;27;61744;-83
2022/03/07 03:32:46;;;;;;;;;50.50;40.50;;;;;8.42;42.27;101911.16;5101755;27;61821;-83
2022/03/07 03:35:12;;;;;;;;;61.25;45.00;;;;;8.43;42.59;101915.56;5103205;27;61786;-83
2022/03/07 03:37:38;;;;;;;;;49.25;41.00;;;;;8.42;42.65;101913.75;5100137;27;65089;-83
2022/03/07 03:40:11;;;;;;;;;62.00;41.33;;;;;8.41;42.34;101911.03;5103411;27;61838;-83
2022/03/07 03:42:37;;;;;;;;;51.67;43.00;;;;;8.37;42.64;101910.75;5105436;27;61806;-83
2022/03/07 03:45:05;;;;;;;;;47.67;43.33;;;;;8.36;42.52;101915.91;5106478;27;61995;-83
2022/03/07 03:47:32;;;;;;;;;48.75;41.00;;;;;8.34;42.74;101910.56;5105992;27;62085;-83
2022/03/07 03:49:57;;;;;;;;;44.25;37.25;;;;;8.30;42.55;101911.13;5105052;27;61833;-83
2022/03/07 03:52:23;;;;;;;;;45.00;38.50;;;;;8.35;42.72;101914.06;5104408;27;61772;-83
2022/03/07 03:54:49;;;;;;;;;47.75;39.75;;;;;8.36;43.00;101918.50;5104946;27;61788;-83
2022/03/07 03:57:14;;;;;;;;;54.50;39.50;;;;;8.33;42.86;101911.38;5105292;27;61955;-83
2022/03/07 03:59:40;;;;;;;;;45.50;39.50;;;;;8.31;42.62;101922.50;5139091;27;61881;-83
2022/03/07 04:02:05;;;;;;;;;50.75;38.50;;;;;8.27;42.69;101916.16;5106318;27;61837;-83
2022/03/07 04:04:31;;;;;;;;;49.75;43.50;;;;;8.27;42.62;101925.69;5106316;27;62109;-83
2022/03/07 04:06:56;;;;;;;;;46.75;34.50;;;;;8.26;42.27;101929.09;5103278;27;63691;-83
2022/03/07 04:09:22;;;;;;;;;41.00;37.33;;;;;8.26;43.17;101934.34;5104803;27;61973;-83
2022/03/07 04:11:48;;;;;;;;;46.75;37.50;;;;;8.20;42.40;101921.72;5106086;27;61698;-83
2022/03/07 04:14:14;;;;;;;;;61.67;43.33;;;;;8.20;43.41;101921.72;5106234;27;61783;-83
2022/03/07 04:16:40;;;;;;;;;48.33;41.00;;;;;8.18;43.18;101928.53;5105651;27;61756;-83
2022/03/07 04:19:07;;;;;;;;;49.00;42.00;;;;;8.18;43.37;101918.09;5105521;27;61885;-82
2022/03/07 04:21:33;;;;;;;;;54.67;42.00;;;;;8.18;42.97;101918.09;5103738;27;62214;-82
2022/03/07 04:23:59;;;;;;;;;50.33;37.33;;;;;8.14;42.79;101927.44;5104718;27;61858;-83
2022/03/07 04:26:25;;;;;;;;;46.67;41.00;;;;;8.15;42.79;101936.19;5104992;27;61793;-83
2022/03/07 04:28:50;;;;;;;;;58.00;43.00;;;;;8.11;43.01;101927.19;5104647;27;61933;-83
2022/03/07 04:31:16;;;;;;;;;42.67;36.33;;;;;8.07;42.71;101926.88;5104254;27;61966;-83
2022/03/07 04:33:41;;;;;;;;;57.33;42.33;;;;;8.03;42.95;101927.44;5104221;27;61733;-83
2022/03/07 04:36:07;;;;;;;;;51.67;41.33;;;;;8.02;43.11;101925.63;5105223;27;63156;-83
2022/03/07 04:38:32;;;;;;;;;47.00;40.33;;;;;7.99;43.27;101929.84;5105349;27;62298;-83
2022/03/07 04:40:58;;;;;;;;;51.67;41.33;;;;;7.97;42.90;101928.81;5105598;27;61739;-83
2022/03/07 04:43:24;;;;;;;;;53.00;39.33;;;;;7.94;43.40;101932.91;5105693;27;61834;-83
2022/03/07 04:45:52;;;;;;;;;51.67;41.67;;;;;7.93;43.53;101931.09;5105143;27;61829;-83
2022/03/07 04:48:18;;;;;;;;;51.00;40.67;;;;;7.92;43.16;101926.66;5103730;27;62170;-83
2022/03/07 04:50:44;;;;;;;;;59.67;41.00;;;;;7.89;43.21;101927.34;5121053;27;61860;-83
2022/03/07 04:53:09;;;;;;;;;53.67;41.67;;;;;7.89;43.10;101934.28;5103699;27;62090;-83
2022/03/07 04:55:35;;;;;;;;;43.75;40.50;;;;;7.86;43.48;101926.19;5104836;27;62057;-83
2022/03/07 04:58:00;;;;;;;;;45.33;38.33;;;;;7.86;43.08;101929.75;5104983;27;61819;-83
2022/03/07 05:00:26;;;;;;;;;48.00;42.00;;;;;7.87;43.78;101933.25;5105327;27;61860;-83
2022/03/07 05:02:51;;;;;;;;;53.67;41.33;;;;;7.85;43.41;101932.22;5104983;27;61714;-82
2022/03/07 05:05:18;;;;;;;;;52.67;41.00;;;;;7.87;43.35;101933.25;5104392;27;63108;-83
2022/03/07 05:07:44;;;;;;;;;47.00;38.00;;;;;7.89;42.74;101931.66;5104823;27;61731;-83
2022/03/07 05:10:09;;;;;;;;;47.33;33.67;;;;;7.88;43.10;101933.34;5103979;27;62063;-83
2022/03/07 05:12:35;;;;;;;;;61.33;42.00;;;;;7.85;43.33;101933.13;5105466;27;62112;-83
2022/03/07 05:15:00;;;;;;;;;55.00;40.67;;;;;7.83;43.58;101926.88;5102890;27;64458;-83
2022/03/07 05:17:26;;;;;;;;;50.00;43.00;;;;;7.84;43.33;101936.56;5105561;27;61763;-83
2022/03/07 05:19:51;;;;;;;;;45.00;39.33;;;;;7.75;43.09;101930.63;5103719;27;62411;-83
2022/03/07 05:22:17;;;;;;;;;50.67;43.33;;;;;7.72;43.61;101926.09;5104646;27;61979;-83
2022/03/07 05:24:43;;;;;;;;;52.00;42.33;;;;;7.71;43.03;101924.28;5103015;27;63985;-83
2022/03/07 05:27:08;;;;;;;;;63.00;44.00;;;;;7.70;43.22;101930.28;5103184;27;61742;-83
2022/03/07 05:29:36;;;;;;;;;55.67;43.00;;;;;7.70;43.51;101930.28;5104908;27;61826;-83
2022/03/07 05:32:01;;;;;;;;;52.33;37.67;;;;;7.70;43.80;101937.22;5103349;27;61749;-83
2022/03/07 05:34:27;;;;;;;;;48.67;40.00;;;;;7.71;43.61;101933.81;5103980;27;63272;-83
2022/03/07 05:36:52;;;;;;;;;49.00;40.33;;;;;7.65;43.44;101934.28;5104285;27;61895;-83
2022/03/07 05:39:19;;;;;;;;;47.67;39.33;;;;;7.65;43.70;101935.97;5103437;27;61930;-83
2022/03/07 05:41:44;;;;;;;;;57.00;44.67;;;;;7.65;43.39;101935.97;5104884;27;62082;-83
2022/03/07 05:44:10;;;;;;;;;57.33;40.00;;;;;7.61;43.27;101939.16;5103907;27;61975;-83
2022/03/07 05:46:35;;;;;;;;;49.00;38.00;;;;;7.56;43.42;101942.34;5104356;27;61960;-83
2022/03/07 05:49:01;;;;;;;;;54.33;43.00;;;;;7.55;43.54;101942.22;5103038;27;61868;-83
2022/03/07 05:51:26;;;;;;;;;54.00;42.33;;;;;7.53;43.93;101933.34;5104274;27;62081;-83
2022/03/07 05:53:52;;;;;;;;;49.00;40.67;;;;;7.52;44.32;101939.34;5102368;27;63560;-83
2022/03/07 05:56:18;;;;;;;;;56.67;45.00;;;;;7.47;44.07;101935.50;5102567;27;61853;-83
2022/03/07 05:58:44;;;;;;;;;51.00;40.00;;;;;7.46;43.77;101933.69;5102713;27;62193;-83
2022/03/07 06:01:09;;;;;;;;;50.33;36.67;;;;;7.45;44.18;101935.38;5102338;27;61883;-83
2022/03/07 06:03:35;;;;;;;;;52.00;42.67;;;;;7.42;44.07;101939.50;5101226;27;63698;-79
2022/03/07 06:06:01;;;;;;;;;50.00;40.67;;;;;7.42;44.08;101943.00;5103252;27;62157;-84
2022/03/07 06:08:26;;;;;;;;;62.33;44.67;;;;;7.39;44.06;101940.16;5120199;27;61979;-83
2022/03/07 06:10:52;;;;;;;;;53.00;38.00;;;;;7.37;44.08;101945.28;5103402;27;61998;-84
2022/03/07 06:13:19;;;;;;;;;61.67;43.00;;;;;7.36;44.80;101943.44;5103516;27;63362;-85
2022/03/07 06:15:45;;;;;;;;;57.67;43.67;;;;;7.35;44.02;101940.72;5102192;27;62164;-83
2022/03/07 06:18:11;;;;;;;;;58.00;43.33;;;;;7.33;43.95;101951.06;5102212;27;61737;-83
2022/03/07 06:20:37;;;;;;;;;54.00;44.67;;;;;7.32;44.27;101950.94;5104105;27;61985;-85
2022/03/07 06:23:04;;;;;;;;;53.00;37.67;;;;;7.33;44.09;101945.81;5101579;27;63751;-83
2022/03/07 06:25:33;;;;;;;;;55.33;41.00;;;;;7.34;44.13;101950.25;5103499;27;62050;-83
2022/03/07 06:27:59;;;;;;;;;51.00;42.00;;;;;7.34;44.51;101958.06;5102120;27;61791;-83
2022/03/07 06:30:24;;;;;;;;;53.00;44.00;;;;;7.32;44.28;101953.53;5102747;27;62472;-81
2022/03/07 06:32:50;;;;;;;;;47.00;42.00;;;;;7.34;44.12;101950.25;5100654;27;61989;-78
2022/03/07 06:35:15;;;;;;;;;63.33;46.67;;;;;7.35;44.12;101957.31;5100361;27;61827;-86
2022/03/07 06:37:52;;;;;;;;;62.33;44.33;;;;;7.36;44.69;101955.59;5100835;27;62274;-83
2022/03/07 06:40:18;;;;;;;;;50.67;44.67;;;;;7.34;44.39;101955.47;5102113;27;61849;-82
2022/03/07 06:42:46;;;;;;;;;63.00;45.33;;;;;7.37;44.64;101950.50;5101839;27;62341;-82
2022/03/07 06:45:12;;;;;;;;;49.00;44.33;;;;;7.40;44.54;101959.34;5100701;27;61873;-83
2022/03/07 06:47:42;;;;;;;;;62.33;50.33;;;;;7.41;44.43;101962.06;5103456;27;62052;-83
2022/03/07 06:50:08;;;;;;;;;52.67;41.67;;;;;7.43;44.19;101965.69;5119164;27;61976;-82
2022/03/07 06:52:34;;;;;;;;;47.33;38.33;;;;;7.45;44.26;101968.44;5118178;27;63771;-84
2022/03/07 06:54:59;;;;;;;;;62.33;45.33;;;;;7.46;44.16;101967.66;5101802;27;61797;-82
2022/03/07 06:57:25;;;;;;;;;56.33;42.67;;;;;7.52;44.50;101960.25;5102741;27;62211;-81
2022/03/07 06:59:50;;;;;;;;;51.00;44.00;;;;;7.54;44.06;101962.22;5102658;27;61882;-84
2022/03/07 07:02:16;;;;;;;;;50.67;38.00;;;;;7.55;43.71;101956.19;5102137;27;62080;-80
2022/03/07 07:04:42;;;;;;;;;55.00;42.33;;;;;7.59;43.81;101959.94;5103409;27;61748;-79
2022/03/07 07:07:08;;;;;;;;;55.67;41.33;;;;;7.62;44.28;101956.66;5118940;27;61912;-82
2022/03/07 07:09:34;;;;;;;;;54.33;39.33;;;;;7.65;43.91;101957.81;5102431;27;61802;-79
2022/03/07 07:11:59;;;;;;;;;50.33;40.33;;;;;7.71;43.72;101959.94;5100816;27;64741;-79
2022/03/07 07:14:25;;;;;;;;;43.33;34.33;;;;;7.83;43.38;101958.25;5116338;27;61860;-79
2022/03/07 07:16:50;;;;;;;;;65.00;42.00;;;;;7.93;43.62;101960.75;5105069;27;61912;-79
2022/03/07 07:19:16;;;;;;;;;41.00;32.00;;;;;8.03;43.66;101966.66;5113576;27;61998;-79
2022/03/07 07:21:41;;;;;;;;;58.00;44.33;;;;;8.02;43.47;101957.91;5105181;27;61892;-79
2022/03/07 07:24:08;;;;;;;;;66.67;47.33;;;;;8.04;43.03;101965.88;5105089;27;61771;-79
2022/03/07 07:26:33;;;;;;;;;62.67;46.00;;;;;8.18;42.64;101955.63;5106441;27;61720;-78
2022/03/07 07:28:59;;;;;;;;;58.00;41.67;;;;;8.49;42.43;101952.63;5122008;27;62185;-81
2022/03/07 07:31:24;;;;;;;;;53.00;43.33;;;;;8.89;41.48;101955.47;5105964;27;61867;-80
2022/03/07 07:33:50;;;;;;;;;46.00;41.33;;;;;9.07;41.26;101958.44;5106560;27;61908;-79
2022/03/07 07:36:16;;;;;;;;;63.00;44.00;;;;;9.15;40.95;101961.59;5122294;27;61714;-80
2022/03/07 07:38:41;;;;;;;;;61.33;45.67;;;;;9.25;40.96;101958.78;5104487;27;61919;-79
2022/03/07 07:41:07;;;;;;;;;52.00;42.00;;;;;9.41;41.00;101959.03;5119870;27;64615;-77
2022/03/07 07:43:33;;;;;;;;;64.00;44.33;;;;;9.52;40.74;101965.00;5102391;27;62031;-80
2022/03/07 07:45:59;;;;;;;;;49.75;42.00;;;;;9.56;40.41;101968.75;5099170;27;62411;-80
2022/03/07 07:48:24;;;;;;;;;45.50;38.25;;;;;9.53;40.14;101963.28;5087059;27;61900;-79
2022/03/07 07:50:50;;;;;;;;;55.33;42.33;;;;;9.49;39.77;101961.25;5105014;27;62452;-79
2022/03/07 07:53:15;;;;;;;;;52.67;40.33;;;;;9.49;40.38;101956.94;5099880;27;62012;-79
2022/03/07 07:55:41;;;;;;;;;60.00;44.00;;;;;9.51;39.86;101959.66;5100643;27;62044;-79
2022/03/07 07:58:06;;;;;;;;;55.67;44.33;;;;;9.53;40.39;101952.81;5099883;27;61898;-79
2022/03/07 08:00:31;;;;;;;;;54.67;43.33;;;;;9.51;39.78;101947.47;5083344;28;64623;-79
2022/03/07 08:02:57;;;;;;;;;60.67;43.33;;;;;9.42;39.76;101946.84;5101273;27;61917;-80
2022/03/07 08:05:23;;;;;;;;;62.00;43.00;;;;;9.48;40.38;101943.72;5105948;27;61980;-79
2022/03/07 08:07:49;;;;;;;;;60.33;40.00;;;;;9.53;39.69;101944.94;5105613;27;62076;-80
2022/03/07 08:10:16;;;;;;;;;62.33;46.00;;;;;9.55;39.73;101941.59;5104855;27;62766;-79
2022/03/07 08:12:43;;;;;;;;;55.67;41.67;;;;;9.60;39.85;101940.22;5104129;27;62062;-80
2022/03/07 08:15:13;;;;;;;;;50.00;43.33;;;;;9.69;39.33;101939.91;5106149;27;62054;-79
2022/03/07 08:17:43;;;;;;;;;40.67;39.00;;;;;9.73;39.01;101938.44;5105181;27;61827;-79
2022/03/07 08:20:09;;;;;;;;;54.67;40.00;;;;;9.78;39.62;101948.38;5103901;27;62142;-79
2022/03/07 08:22:41;;;;;;;;;45.33;39.33;;;;;9.73;38.68;101947.19;5104398;27;61941;-79
2022/03/07 08:25:07;;;;;;;;;59.00;44.67;;;;;9.72;38.98;101949.69;5121855;27;62034;-79
2022/03/07 08:27:34;;;;;;;;;51.00;44.00;;;;;9.74;38.76;101943.75;5102825;27;62233;-79
2022/03/07 08:30:07;;;;;;;;;53.33;40.33;;;;;9.78;38.89;101932.66;5103939;27;63463;-79
2022/03/07 08:32:34;;;;;;;;;51.67;40.33;;;;;9.81;38.59;101937.19;5105861;27;61793;-79
2022/03/07 08:35:00;;;;;;;;;56.25;43.00;;;;;9.79;38.36;101936.19;5104131;27;61913;-79
2022/03/07 08:37:26;;;;;;;;;56.25;44.00;;;;;9.71;38.03;101937.41;5104142;27;62093;-80
2022/03/07 08:39:51;;;;;;;;;59.00;42.00;;;;;9.63;38.62;101936.88;5104942;27;63302;-79
2022/03/07 08:42:17;;;;;;;;;46.00;38.75;;;;;9.60;38.26;101928.84;5104708;27;61777;-79
2022/03/07 08:44:42;;;;;;;;;55.75;43.50;;;;;9.70;39.10;101933.84;5100285;27;62102;-79
2022/03/07 08:47:09;;;;;;;;;60.00;46.00;;;;;9.79;38.06;101926.63;5084617;28;62381;-79
2022/03/07 08:49:35;;;;;;;;;55.75;39.50;;;;;9.90;38.33;101932.56;5084054;28;61903;-79
2022/03/07 08:52:00;;;;;;;;;52.75;41.75;;;;;10.00;38.60;101923.56;5084277;28;62218;-79
2022/03/07 08:54:26;;;;;;;;;57.33;40.00;;;;;10.02;38.01;101930.72;5084387;28;61846;-79
2022/03/07 08:56:51;;;;;;;;;47.67;35.67;;;;;10.10;38.02;101925.09;5083967;28;61748;-82
2022/03/07 08:59:16;;;;;;;;;59.33;45.33;;;;;10.10;37.19;101930.34;5099630;27;64115;-81
2022/03/07 09:01:42;;;;;;;;;59.00;41.75;;;;;10.13;38.02;101927.91;5084567;28;61899;-80
2022/03/07 09:04:07;;;;;;;;;53.00;44.00;;;;;10.20;37.78;101924.88;5084428;28;61946;-80
2022/03/07 09:06:33;;;;;;;;;54.67;40.00;;;;;10.29;37.63;101921.94;5084532;28;61697;-80
2022/03/07 09:08:59;;;;;;;;;51.67;43.33;;;;;10.34;37.88;101929.31;5099394;27;64535;-80
2022/03/07 09:11:24;;;;;;;;;53.33;42.00;;;;;10.31;36.73;101917.72;5084386;28;62008;-80
2022/03/07 09:13:50;;;;;;;;;59.33;43.67;;;;;10.37;37.14;101924.28;5090308;27;61879;-80
2022/03/07 09:16:15;;;;;;;;;51.67;43.33;;;;;10.39;37.35;101925.28;5105053;27;61793;-80
2022/03/07 09:18:41;;;;;;;;;60.00;41.00;;;;;10.45;37.54;101914.22;5102858;27;61831;-80
2022/03/07 09:21:07;;;;;;;;;50.33;39.00;;;;;10.50;36.76;101920.69;5104567;27;61926;-80
2022/03/07 09:23:37;;;;;;;;;90.67;71.33;;;;;10.42;35.90;101914.94;5103233;27;61990;-80
2022/03/07 09:26:06;;;;;;;;;49.00;39.67;;;;;10.39;36.78;101922.66;5102692;27;61818;-80
2022/03/07 09:28:33;;;;;;;;;53.00;43.33;;;;;10.34;36.38;101918.81;5104284;27;61937;-80
2022/03/07 09:30:59;;;;;;;;;52.25;39.50;;;;;10.42;37.04;101920.22;5104620;27;61964;-80
2022/03/07 09:33:24;;;;;;;;;56.00;42.00;;;;;10.52;36.51;101919.09;5103102;27;61893;-80
2022/03/07 09:35:50;;;;;;;;;54.50;42.00;;;;;10.55;36.42;101926.25;5104616;27;62176;-80
2022/03/07 09:38:16;;;;;;;;;60.00;43.00;;;;;10.61;36.86;101922.28;5100365;27;63461;-79
2022/03/07 09:40:42;;;;;;;;;54.50;39.50;;;;;10.65;36.01;101915.50;5104378;27;61910;-79
2022/03/07 09:43:08;;;;;;;;;50.50;42.50;;;;;10.59;35.37;101920.38;5103893;27;61869;-80
2022/03/07 09:45:34;;;;;;;;;51.50;39.50;;;;;10.53;36.21;101922.59;5104356;27;62091;-82
2022/03/07 09:47:59;;;;;;;;;50.75;42.25;;;;;10.61;36.18;101921.38;5103441;27;62633;-80
2022/03/07 09:50:25;;;;;;;;;56.50;42.00;;;;;10.76;36.17;101911.81;5095813;27;61925;-80
2022/03/07 09:52:50;;;;;;;;;56.50;42.00;;;;;10.57;35.36;101901.88;5081799;28;61693;-80
2022/03/07 09:55:17;;;;;;;;;56.00;43.00;;;;;10.64;36.27;101911.03;5104208;27;61681;-80
2022/03/07 09:57:46;;;;;;;;;53.00;40.00;;;;;10.76;36.59;101903.94;5101840;27;63167;-81
2022/03/07 10:00:13;;;;;;;;;49.00;41.00;;;;;10.88;35.85;101908.13;5103490;27;61731;-80
2022/03/07 10:02:39;;;;;;;;;48.33;40.67;;;;;10.91;36.28;101901.34;5102656;27;61953;-80
2022/03/07 10:05:05;;;;;;;;;42.25;39.75;;;;;11.01;36.05;101901.09;5104324;27;61972;-80
2022/03/07 10:07:30;;;;;;;;;54.00;42.50;;;;;11.04;35.30;101896.00;5102379;27;61939;-81
2022/03/07 10:10:07;;;;;;;;;46.75;40.00;;;;;11.03;35.35;101888.97;5102297;27;62509;-80
2022/03/07 10:12:33;;;;;;;;;48.25;39.00;;;;;11.07;35.09;101892.66;5101388;27;61863;-80
2022/03/07 10:15:11;;;;;;;;;55.75;43.50;;;;;11.16;35.19;101887.03;5102613;27;61790;-80
2022/03/07 10:17:40;;;;;;;;;55.00;42.00;;;;;11.14;34.46;101889.59;5103105;27;61809;-80
2022/03/07 10:20:07;;;;;;;;;44.75;38.75;;;;;11.22;34.70;101888.31;5103558;27;61809;-80
2022/03/07 10:22:33;;;;;;;;;44.50;38.75;;;;;11.32;34.80;101879.25;5103291;27;61888;-80
2022/03/07 10:25:08;;;;;;;;;45.75;36.00;;;;;11.33;33.88;101882.78;5103937;27;62067;-80
2022/03/07 10:27:37;;;;;;;;;50.50;38.25;;;;;11.41;34.39;101879.78;5100118;27;61939;-80
2022/03/07 10:30:15;;;;;;;;;48.00;37.00;;;;;11.38;33.54;101876.09;5103883;27;61852;-81
2022/03/07 10:32:43;;;;;;;;;49.75;37.00;;;;;11.46;33.99;101875.72;5104152;27;62024;-80
2022/03/07 10:35:25;;;;;;;;;38.75;27.50;;;;;11.55;33.75;101880.63;5102681;27;61873;-81
2022/03/07 10:37:56;;;;;;;;;58.25;42.50;;;;;11.49;33.28;101879.34;5102078;27;62043;-80
2022/03/07 10:40:22;;;;;;;;;55.25;40.50;;;;;11.49;33.47;101869.72;5103724;27;61708;-80
2022/03/07 10:42:49;;;;;;;;;48.75;41.75;;;;;11.66;33.55;101871.59;5102022;27;61965;-80
2022/03/07 10:45:16;;;;;;;;;42.00;38.25;;;;;11.78;33.73;101862.59;5101887;27;62244;-80
2022/03/07 10:47:41;;;;;;;;;44.75;38.25;;;;;11.92;34.03;101859.06;5103007;27;62011;-80
2022/03/07 10:50:08;;;;;;;;;56.75;41.75;;;;;12.04;33.80;101862.38;5096989;27;61870;-80
2022/03/07 10:52:42;;;;;;;;;49.00;38.50;;;;;11.95;31.87;101861.84;5082501;28;61978;-80
2022/03/07 10:55:11;;;;;;;;;41.75;30.25;;;;;11.93;31.36;101852.97;5088322;27;62011;-80
2022/03/07 10:57:39;;;;;;;;;41.00;38.00;;;;;11.91;31.06;101848.44;5118040;27;63732;-80
2022/03/07 11:00:11;;;;;;;;;49.00;38.50;;;;;12.03;31.03;101849.13;5103354;27;61856;-80
2022/03/07 11:02:38;;;;;;;;;48.50;40.00;;;;;12.10;30.91;101848.66;5118653;27;61790;-80
2022/03/07 11:05:07;;;;;;;;;44.50;37.75;;;;;12.20;31.53;101839.53;5118852;27;62209;-80
2022/03/07 11:07:34;;;;;;;;;53.00;40.50;;;;;12.37;31.26;101832.56;5100496;27;62143;-80
2022/03/07 11:09:59;;;;;;;;;39.75;35.50;;;;;12.42;30.62;101836.34;5119241;27;61776;-80